createdAt,value
2022-12-12T00:01:53.441Z,98027.41
2022-12-12T00:04:20.286Z,98019.75
2022-12-12T00:06:47.352Z,98030.78
2022-12-12T00:09:14.272Z,98034.22
2022-12-12T00:11:41.220Z,98021.50
2022-12-12T00:14:08.371Z,98011.25
2022-12-12T00:16:35.314Z,98017.19
2022-12-12T00:19:02.187Z,98041.84
2022-12-12T00:21:29.485Z,98046.03
2022-12-12T00:23:56.587Z,98043.50
2022-12-12T00:26:29.328Z,98021.44
2022-12-12T00:28:56.432Z,98051.97
2022-12-12T00:31:23.422Z,98037.53
2022-12-12T00:33:51.308Z,98028.97
2022-12-12T00:36:19.110Z,98039.19
2022-12-12T00:38:46.078Z,98040.91
2022-12-12T00:41:12.959Z,98047.59
2022-12-12T00:43:39.935Z,98068.84
2022-12-12T00:46:06.845Z,98035.78
2022-12-12T00:48:33.782Z,98068.84
2022-12-12T00:51:06.400Z,98034.06
2022-12-12T00:53:33.325Z,98036.56
2022-12-12T00:56:00.217Z,98038.28
2022-12-12T00:58:27.462Z,98016.22
2022-12-12T01:00:54.529Z,98035.69
2022-12-12T01:03:21.808Z,98041.63
2022-12-12T01:05:48.956Z,98030.59
2022-12-12T01:08:15.956Z,98038.25
2022-12-12T01:10:42.924Z,98065.44
2022-12-12T01:13:09.925Z,98056.09
2022-12-12T01:15:36.899Z,98052.69
2022-12-12T01:18:03.900Z,98059.53
2022-12-12T01:20:30.955Z,98045.88
2022-12-12T01:22:57.830Z,98033.16
2022-12-12T01:25:24.806Z,98043.34
2022-12-12T01:27:51.751Z,98034.00
2022-12-12T01:30:19.901Z,98064.56
2022-12-12T01:32:46.815Z,98067.09
2022-12-12T01:35:14.009Z,98044.16
2022-12-12T01:37:41.647Z,98032.28
2022-12-12T01:40:12.373Z,98040.78
2022-12-12T01:42:39.289Z,98046.66
2022-12-12T01:45:06.724Z,98046.69
2022-12-12T01:47:33.645Z,98033.13
2022-12-12T01:50:06.285Z,98022.09
2022-12-12T01:52:37.632Z,98050.94
2022-12-12T01:55:05.697Z,98028.88
2022-12-12T01:57:34.767Z,98030.63
2022-12-12T02:00:01.817Z,98031.41
2022-12-12T02:02:31.662Z,98018.69
2022-12-12T02:05:00.167Z,98037.31
2022-12-12T02:07:27.058Z,98039.03
2022-12-12T02:09:54.025Z,98020.34
2022-12-12T02:12:20.917Z,98025.44
2022-12-12T02:14:49.551Z,98065.31
2022-12-12T02:17:24.331Z,98059.38
2022-12-12T02:19:57.141Z,98058.53
2022-12-12T02:22:42.997Z,98064.41
2022-12-12T02:25:16.064Z,98050.03
2022-12-12T02:28:01.742Z,98065.25
2022-12-12T02:31:02.907Z,98020.25
2022-12-12T02:33:44.865Z,98064.38
2022-12-12T02:36:13.897Z,98059.31
2022-12-12T02:38:45.449Z,98050.84
2022-12-12T02:41:40.135Z,98032.13
2022-12-12T02:44:48.138Z,98050.78
2022-12-12T02:47:30.280Z,98030.38
2022-12-12T02:50:22.904Z,98049.06
2022-12-12T02:52:49.937Z,98046.50
2022-12-12T02:55:17.221Z,98021.88
2022-12-12T02:57:44.418Z,98043.13
2022-12-12T03:00:17.579Z,98026.13
2022-12-12T03:02:53.394Z,98043.13
2022-12-12T03:06:02.157Z,98039.75
2022-12-12T03:08:35.089Z,98047.34
2022-12-12T03:11:11.213Z,98052.38
2022-12-12T03:13:57.186Z,98053.19
2022-12-12T03:16:48.159Z,98044.66
2022-12-12T03:19:40.724Z,98045.50
2022-12-12T03:22:11.807Z,98033.59
2022-12-12T03:24:49.402Z,98055.69
2022-12-12T03:27:24.896Z,98053.13
2022-12-12T03:30:06.827Z,98022.53
2022-12-12T03:32:49.357Z,98051.44
2022-12-12T03:35:36.371Z,98051.38
2022-12-12T03:38:25.214Z,98049.63
2022-12-12T03:40:59.110Z,98052.19
2022-12-12T03:43:47.167Z,98039.41
2022-12-12T03:46:22.818Z,98013.06
2022-12-12T03:48:54.611Z,98069.91
2022-12-12T03:51:37.333Z,98041.91
2022-12-12T03:54:43.899Z,98058.00
2022-12-12T03:57:22.914Z,98027.41
2022-12-12T03:59:53.547Z,98029.94
2022-12-12T04:02:32.531Z,98052.88
2022-12-12T04:05:11.950Z,98054.56
2022-12-12T04:07:44.363Z,98046.88
2022-12-12T04:10:29.908Z,98056.22
2022-12-12T04:13:09.074Z,98063.06
2022-12-12T04:15:48.579Z,98063.03
2022-12-12T04:18:43.285Z,98060.47
2022-12-12T04:21:36.119Z,98063.00
2022-12-12T04:24:14.611Z,98067.19
2022-12-12T04:27:24.601Z,98067.16
2022-12-12T04:29:51.461Z,98054.44
2022-12-12T04:32:34.555Z,98042.50
2022-12-12T04:35:10.337Z,98074.72
2022-12-12T04:37:49.612Z,98070.50
2022-12-12T04:40:22.809Z,98062.81
2022-12-12T04:43:01.405Z,98041.53
2022-12-12T04:45:30.924Z,98072.13
2022-12-12T04:47:57.892Z,98077.22
2022-12-12T04:50:25.752Z,98048.31
2022-12-12T04:52:52.908Z,98045.72
2022-12-12T04:55:23.123Z,98048.25
2022-12-12T04:57:51.779Z,98072.06
2022-12-12T05:00:20.267Z,98079.66
2022-12-12T05:02:53.191Z,98072.00
2022-12-12T05:05:53.770Z,98083.78
2022-12-12T05:08:30.449Z,98080.41
2022-12-12T05:11:00.232Z,98068.53
2022-12-12T05:13:32.980Z,98081.25
2022-12-12T05:16:00.600Z,98037.06
2022-12-12T05:18:27.595Z,98043.81
2022-12-12T05:20:54.549Z,98044.66
2022-12-12T05:23:21.449Z,98074.34
2022-12-12T05:25:48.444Z,98076.06
2022-12-12T05:28:15.386Z,98088.75
2022-12-12T05:30:42.468Z,98087.91
2022-12-12T05:33:09.488Z,98059.00
2022-12-12T05:35:36.808Z,98063.16
2022-12-12T05:38:03.873Z,98062.25
2022-12-12T05:40:31.013Z,98062.25
2022-12-12T05:42:58.049Z,98075.00
2022-12-12T05:45:24.961Z,98059.69
2022-12-12T05:47:51.921Z,98086.81
2022-12-12T05:50:18.900Z,98072.38
2022-12-12T05:52:45.838Z,98068.13
2022-12-12T05:55:12.874Z,98081.72
2022-12-12T05:57:39.935Z,98060.44
2022-12-12T06:00:08.001Z,98081.69
2022-12-12T06:02:34.997Z,98074.03
2022-12-12T06:05:02.038Z,98078.28
2022-12-12T06:07:29.192Z,98060.31
2022-12-12T06:09:56.171Z,98089.25
2022-12-12T06:12:23.189Z,98061.06
2022-12-12T06:14:50.171Z,98077.16
2022-12-12T06:17:17.037Z,98084.84
2022-12-12T06:19:43.973Z,98100.16
2022-12-12T06:22:10.934Z,98066.09
2022-12-12T06:24:37.899Z,98112.88
2022-12-12T06:27:04.765Z,98085.63
2022-12-12T06:29:31.983Z,98108.50
2022-12-12T06:31:58.897Z,98104.94
2022-12-12T06:34:25.997Z,98107.53
2022-12-12T06:36:52.856Z,98101.56
2022-12-12T06:39:19.812Z,98117.78
2022-12-12T06:41:46.698Z,98127.09
2022-12-12T06:44:13.569Z,98107.53
2022-12-12T06:46:40.545Z,98122.81
2022-12-12T06:49:09.979Z,98124.47
2022-12-12T06:51:40.995Z,98102.31
2022-12-12T06:54:07.870Z,98100.53
2022-12-12T06:56:34.779Z,98109.81
2022-12-12T06:59:01.734Z,98104.78
2022-12-12T07:01:28.655Z,98125.13
2022-12-12T07:03:55.639Z,98132.00
2022-12-12T07:06:23.456Z,98132.88
2022-12-12T07:08:50.645Z,98098.78
2022-12-12T07:11:20.011Z,98114.91
2022-12-12T07:13:47.046Z,98124.22
2022-12-12T07:16:14.084Z,98119.13
2022-12-12T07:18:41.169Z,98104.69
2022-12-12T07:21:09.081Z,98112.31
2022-12-12T07:23:36.035Z,98138.69
2022-12-12T07:26:07.155Z,98114.81
2022-12-12T07:28:34.151Z,98125.06
2022-12-12T07:31:05.577Z,98136.09
2022-12-12T07:33:42.601Z,98127.44
2022-12-12T07:36:11.086Z,98123.19
2022-12-12T07:38:38.165Z,98135.13
2022-12-12T07:41:06.380Z,98113.00
2022-12-12T07:43:38.545Z,98158.09
2022-12-12T07:46:11.397Z,98125.63
2022-12-12T07:48:38.318Z,98133.97
2022-12-12T07:51:05.426Z,98145.84
2022-12-12T07:53:32.343Z,98138.28
2022-12-12T07:55:59.284Z,98141.72
2022-12-12T07:58:26.237Z,98141.66
2022-12-12T08:00:53.255Z,98152.75
2022-12-12T08:03:20.229Z,98165.53
2022-12-12T08:05:47.235Z,98169.78
2022-12-12T08:08:14.173Z,98172.38
2022-12-12T08:10:41.286Z,98150.06
2022-12-12T08:13:08.459Z,98174.72
2022-12-12T08:15:35.453Z,98176.50
2022-12-12T08:18:02.342Z,98152.63
2022-12-12T08:20:29.405Z,98186.72
2022-12-12T08:22:56.304Z,98183.34
2022-12-12T08:25:23.274Z,98183.28
2022-12-12T08:27:50.162Z,98178.16
2022-12-12T08:30:17.104Z,98167.97
2022-12-12T08:32:44.012Z,98197.72
2022-12-12T08:35:11.143Z,98190.81
2022-12-12T08:37:38.423Z,98163.63
2022-12-12T08:40:06.067Z,98205.28
2022-12-12T08:42:32.945Z,98179.72
2022-12-12T08:45:00.335Z,98175.16
2022-12-12T08:47:27.429Z,98191.38
2022-12-12T08:49:56.975Z,98199.09
2022-12-12T08:52:23.875Z,98198.25
2022-12-12T08:54:50.871Z,98219.47
2022-12-12T08:57:25.622Z,98218.72
2022-12-12T08:59:52.886Z,98200.81
2022-12-12T09:02:19.931Z,98213.59
2022-12-12T09:04:46.994Z,98223.88
2022-12-12T09:07:14.069Z,98202.50
2022-12-12T09:09:41.133Z,98195.81
2022-12-12T09:12:08.479Z,98201.75
2022-12-12T09:14:35.476Z,98198.34
2022-12-12T09:17:02.412Z,98196.69
2022-12-12T09:19:29.366Z,98228.13
2022-12-12T09:21:56.313Z,98217.91
2022-12-12T09:24:25.572Z,98206.03
2022-12-12T09:26:52.536Z,98191.66
2022-12-12T09:29:19.501Z,98207.84
2022-12-12T09:31:47.027Z,98193.38
2022-12-12T09:34:14.228Z,98177.94
2022-12-12T09:36:41.176Z,98195.81
2022-12-12T09:39:08.048Z,98200.22
2022-12-12T09:41:35.012Z,98207.91
2022-12-12T09:44:18.827Z,98182.47
2022-12-12T09:46:55.661Z,98200.28
2022-12-12T09:49:46.951Z,98223.25
2022-12-12T09:52:35.112Z,98225.75
2022-12-12T09:55:23.059Z,98222.34
2022-12-12T09:57:59.101Z,98218.16
2022-12-12T10:00:26.221Z,98224.16
2022-12-12T10:03:05.466Z,98232.66
2022-12-12T10:05:41.578Z,98230.09
2022-12-12T10:08:19.043Z,98241.13
2022-12-12T10:10:48.521Z,98241.13
2022-12-12T10:13:23.687Z,98232.50
2022-12-12T10:15:52.882Z,98201.91
2022-12-12T10:18:32.306Z,98227.47
2022-12-12T10:21:04.742Z,98199.50
2022-12-12T10:23:51.080Z,98234.38
2022-12-12T10:26:25.808Z,98239.38
2022-12-12T10:28:54.196Z,98210.50
2022-12-12T10:31:51.996Z,98225.81
2022-12-12T10:34:34.069Z,98238.50
2022-12-12T10:37:15.209Z,98240.22
2022-12-12T10:40:03.866Z,98247.81
2022-12-12T10:42:38.803Z,98240.25
2022-12-12T10:45:25.897Z,98238.59
2022-12-12T10:47:52.910Z,98226.69
2022-12-12T10:50:19.721Z,98234.44
2022-12-12T10:52:46.613Z,98222.44
2022-12-12T10:55:33.167Z,98231.88
2022-12-12T10:58:04.419Z,98216.56
2022-12-12T11:00:39.158Z,98212.22
2022-12-12T11:03:28.326Z,98240.22
2022-12-12T11:05:56.151Z,98213.66
2022-12-12T11:08:31.037Z,98219.47
2022-12-12T11:11:07.193Z,98245.00
2022-12-12T11:13:51.415Z,98249.25
2022-12-12T11:16:29.153Z,98236.47
2022-12-12T11:19:33.002Z,98247.59
2022-12-12T11:21:59.949Z,98249.31
2022-12-12T11:24:44.681Z,98241.63
2022-12-12T11:27:20.447Z,98219.38
2022-12-12T11:29:48.464Z,98218.50
2022-12-12T11:32:20.018Z,98231.41
2022-12-12T11:34:51.766Z,98252.81
2022-12-12T11:37:23.462Z,98248.63
2022-12-12T11:39:51.991Z,98241.78
2022-12-12T11:42:29.548Z,98233.22
2022-12-12T11:45:04.900Z,98240.00
2022-12-12T11:47:38.858Z,98224.75
2022-12-12T11:50:25.994Z,98212.81
2022-12-12T11:52:58.959Z,98201.03
2022-12-12T11:55:44.740Z,98257.78
2022-12-12T11:58:28.274Z,98229.72
2022-12-12T12:00:58.595Z,98256.72
2022-12-12T12:03:51.361Z,98255.25
2022-12-12T12:06:41.517Z,98249.38
2022-12-12T12:09:08.385Z,98251.75
2022-12-12T12:11:41.345Z,98263.81
2022-12-12T12:14:27.144Z,98233.81
2022-12-12T12:17:27.192Z,98229.72
2022-12-12T12:19:54.075Z,98261.31
2022-12-12T12:22:58.301Z,98254.66
2022-12-12T12:25:34.383Z,98254.69
2022-12-12T12:28:33.836Z,98261.38
2022-12-12T12:31:17.017Z,98240.16
2022-12-12T12:33:53.131Z,98264.69
2022-12-12T12:36:49.237Z,98260.50
2022-12-12T12:39:27.538Z,98260.53
2022-12-12T12:42:33.049Z,98253.78
2022-12-12T12:45:23.899Z,98257.16
2022-12-12T12:48:19.104Z,98228.97
2022-12-12T12:51:09.261Z,98266.38
2022-12-12T12:53:57.741Z,98257.88
2022-12-12T12:56:32.415Z,98231.53
2022-12-12T12:59:04.532Z,98232.41
2022-12-12T13:01:39.313Z,98255.34
2022-12-12T13:04:12.025Z,98252.03
2022-12-12T13:06:49.405Z,98265.59
2022-12-12T13:09:42.064Z,98272.31
2022-12-12T13:12:17.203Z,98273.75
2022-12-12T13:15:27.142Z,98239.75
2022-12-12T13:18:04.956Z,98232.22
2022-12-12T13:20:59.221Z,98247.50
2022-12-12T13:23:32.151Z,98264.66
2022-12-12T13:26:12.636Z,98267.22
2022-12-12T13:28:48.151Z,98263.81
2022-12-12T13:31:21.017Z,98260.53
2022-12-12T13:33:51.997Z,98258.78
2022-12-12T13:36:30.234Z,98242.59
2022-12-12T13:39:01.676Z,98268.25
2022-12-12T13:41:54.720Z,98258.91
2022-12-12T13:44:35.611Z,98262.25
2022-12-12T13:47:04.158Z,98280.97
2022-12-12T13:49:40.277Z,98275.16
2022-12-12T13:52:25.615Z,98275.97
2022-12-12T13:55:11.321Z,98271.78
2022-12-12T13:58:06.043Z,98283.63
2022-12-12T14:00:36.687Z,98239.28
2022-12-12T14:03:09.924Z,98269.22
2022-12-12T14:05:42.438Z,98286.19
2022-12-12T14:08:12.486Z,98289.66
2022-12-12T14:10:45.461Z,98292.22
2022-12-12T14:13:21.617Z,98293.00
2022-12-12T14:16:14.915Z,98294.66
2022-12-12T14:19:20.337Z,98259.72
2022-12-12T14:21:47.837Z,98268.03
2022-12-12T14:24:33.073Z,98303.81
2022-12-12T14:27:00.985Z,98298.78
2022-12-12T14:29:29.116Z,98274.94
2022-12-12T14:32:10.951Z,98304.78
2022-12-12T14:34:57.263Z,98307.34
2022-12-12T14:37:39.044Z,98263.84
2022-12-12T14:40:09.206Z,98301.41
2022-12-12T14:43:18.714Z,98312.34
2022-12-12T14:45:51.571Z,98292.72
2022-12-12T14:48:29.113Z,98312.28
2022-12-12T14:51:05.727Z,98302.13
2022-12-12T14:53:44.218Z,98305.53
2022-12-12T14:56:15.118Z,98298.72
2022-12-12T14:58:54.309Z,98311.53
2022-12-12T15:01:33.120Z,98300.31
2022-12-12T15:04:00.317Z,98285.78
2022-12-12T15:06:29.403Z,98307.06
2022-12-12T15:08:58.338Z,98299.38
2022-12-12T15:11:26.991Z,98319.03
2022-12-12T15:13:55.625Z,98303.72
2022-12-12T15:16:42.808Z,98329.25
2022-12-12T15:19:15.416Z,98305.31
2022-12-12T15:21:45.757Z,98318.09
2022-12-12T15:24:23.468Z,98305.94
2022-12-12T15:26:52.201Z,98340.00
2022-12-12T15:29:21.177Z,98312.84
2022-12-12T15:31:48.394Z,98329.03
2022-12-12T15:34:34.266Z,98347.72
2022-12-12T15:37:24.154Z,98346.91
2022-12-12T15:40:06.751Z,98339.16
2022-12-12T15:42:33.723Z,98325.47
2022-12-12T15:45:01.018Z,98320.44
2022-12-12T15:47:28.012Z,98334.97
2022-12-12T15:49:55.135Z,98301.75
2022-12-12T15:52:25.969Z,98335.75
2022-12-12T15:54:54.960Z,98290.50
2022-12-12T15:57:26.930Z,98322.94
2022-12-12T16:00:02.320Z,98340.81
2022-12-12T16:02:32.819Z,98305.06
2022-12-12T16:05:24.054Z,98335.72
2022-12-12T16:07:51.015Z,98326.41
2022-12-12T16:10:17.825Z,98336.56
2022-12-12T16:12:58.163Z,98309.34
2022-12-12T16:15:37.921Z,98351.91
2022-12-12T16:18:15.357Z,98346.75
2022-12-12T16:20:47.514Z,98333.06
2022-12-12T16:23:23.238Z,98358.66
2022-12-12T16:25:50.375Z,98335.56
2022-12-12T16:28:25.767Z,98348.16
2022-12-12T16:31:00.767Z,98359.22
2022-12-12T16:33:38.062Z,98317.44
2022-12-12T16:36:11.655Z,98366.91
2022-12-12T16:38:40.282Z,98323.47
2022-12-12T16:41:09.128Z,98342.25
2022-12-12T16:43:36.132Z,98363.50
2022-12-12T16:46:06.408Z,98338.81
2022-12-12T16:48:34.948Z,98343.84
2022-12-12T16:51:05.137Z,98337.94
2022-12-12T16:53:32.542Z,98370.28
2022-12-12T16:56:01.414Z,98363.50
2022-12-12T16:58:28.567Z,98332.81
2022-12-12T17:00:55.748Z,98373.72
2022-12-12T17:03:23.687Z,98373.63
2022-12-12T17:05:50.705Z,98369.31
2022-12-12T17:08:18.340Z,98352.34
2022-12-12T17:10:46.044Z,98355.72
2022-12-12T17:13:17.887Z,98391.44
2022-12-12T17:15:44.908Z,98385.41
2022-12-12T17:18:11.827Z,98363.09
2022-12-12T17:20:38.834Z,98387.94
2022-12-12T17:23:30.079Z,98399.88
2022-12-12T17:26:03.576Z,98359.81
2022-12-12T17:28:31.743Z,98357.25
2022-12-12T17:30:58.835Z,98359.03
2022-12-12T17:33:26.138Z,98410.09
2022-12-12T17:36:06.287Z,98397.34
2022-12-12T17:38:33.674Z,98396.47
2022-12-12T17:41:05.039Z,98406.69
2022-12-12T17:43:32.095Z,98407.47
2022-12-12T17:45:59.817Z,98405.66
2022-12-12T17:48:33.191Z,98399.81
2022-12-12T17:51:01.360Z,98364.84
2022-12-12T17:53:32.514Z,98385.34
2022-12-12T17:56:01.237Z,98369.91
2022-12-12T17:58:38.478Z,98399.72
2022-12-12T18:01:12.753Z,98426.03
2022-12-12T18:03:40.320Z,98401.25
2022-12-12T18:06:08.485Z,98430.34
2022-12-12T18:08:36.972Z,98424.38
2022-12-12T18:11:08.934Z,98404.69
2022-12-12T18:13:36.265Z,98431.13
2022-12-12T18:16:03.310Z,98405.56
2022-12-12T18:18:30.300Z,98409.88
2022-12-12T18:20:57.160Z,98416.66
2022-12-12T18:23:24.158Z,98424.44
2022-12-12T18:25:51.031Z,98435.44
2022-12-12T18:28:18.127Z,98400.47
2022-12-12T18:30:45.069Z,98443.13
2022-12-12T18:33:12.059Z,98443.06
2022-12-12T18:35:38.969Z,98419.09
2022-12-12T18:38:06.642Z,98425.94
2022-12-12T18:40:34.359Z,98450.56
2022-12-12T18:43:01.379Z,98435.19
2022-12-12T18:45:28.359Z,98464.03
2022-12-12T18:47:55.877Z,98438.47
2022-12-12T18:50:22.757Z,98441.88
2022-12-12T18:52:49.830Z,98442.69
2022-12-12T18:55:16.830Z,98461.34
2022-12-12T18:57:43.851Z,98471.59
2022-12-12T19:00:11.467Z,98483.56
2022-12-12T19:02:40.627Z,98481.72
2022-12-12T19:05:07.813Z,98463.03
2022-12-12T19:07:34.777Z,98501.38
2022-12-12T19:10:01.710Z,98472.38
2022-12-12T19:12:28.847Z,98512.41
2022-12-12T19:17:43.149Z,98493.53
2022-12-12T19:20:10.822Z,98510.59
2022-12-12T19:22:45.458Z,98509.78
2022-12-12T19:25:18.817Z,98465.41
2022-12-12T19:27:45.893Z,98496.91
2022-12-12T19:30:13.942Z,98498.63
2022-12-12T19:32:41.715Z,98491.75
2022-12-12T19:35:08.776Z,98507.91
2022-12-12T19:37:36.301Z,98501.91
2022-12-12T19:40:03.453Z,98530.91
2022-12-12T19:42:30.622Z,98510.41
2022-12-12T19:44:57.519Z,98515.47
2022-12-12T19:47:24.557Z,98532.56
2022-12-12T19:49:51.665Z,98536.69
2022-12-12T19:52:19.891Z,98534.13
2022-12-12T19:54:47.152Z,98533.28
2022-12-12T19:57:14.095Z,98523.88
2022-12-12T19:59:41.175Z,98545.94
2022-12-12T20:02:09.653Z,98541.75
2022-12-12T20:04:38.523Z,98525.50
2022-12-12T20:07:06.120Z,98542.44
2022-12-12T20:09:34.936Z,98583.47
2022-12-12T20:12:01.937Z,98554.28
2022-12-12T20:14:30.525Z,98580.81
2022-12-12T20:16:57.757Z,98591.88
2022-12-12T20:19:29.092Z,98589.28
2022-12-12T20:22:01.240Z,98550.09
2022-12-12T20:24:29.224Z,98544.84
2022-12-12T20:26:56.247Z,98573.94
2022-12-12T20:29:23.594Z,98590.16
2022-12-12T20:31:50.911Z,98568.81
2022-12-12T20:34:19.086Z,98562.00
2022-12-12T20:36:46.722Z,98556.88
2022-12-12T20:39:22.362Z,98596.19
2022-12-12T20:41:53.978Z,98572.16
2022-12-12T20:44:21.100Z,98587.56
2022-12-12T20:46:48.086Z,98582.41
2022-12-12T20:49:17.600Z,98573.91
2022-12-12T20:52:00.393Z,98594.28
2022-12-12T20:54:28.545Z,98572.00
2022-12-12T20:56:56.023Z,98583.16
2022-12-12T20:59:23.948Z,98590.91
2022-12-12T21:01:51.373Z,98601.13
2022-12-12T21:04:18.555Z,98627.53
2022-12-12T21:06:48.491Z,98622.41
2022-12-12T21:09:24.859Z,98604.44
2022-12-12T21:11:58.152Z,98592.41
2022-12-12T21:14:26.781Z,98612.81
2022-12-12T21:16:53.873Z,98610.38
2022-12-12T21:19:23.793Z,98632.59
2022-12-12T21:21:51.170Z,98629.09
2022-12-12T21:24:18.110Z,98592.44
2022-12-12T21:26:46.234Z,98613.72
2022-12-12T21:29:13.293Z,98618.03
2022-12-12T21:31:48.173Z,98646.31
2022-12-12T21:34:18.419Z,98638.50
2022-12-12T21:36:45.445Z,98619.69
2022-12-12T21:39:12.389Z,98614.75
2022-12-12T21:41:41.674Z,98643.69
2022-12-12T21:44:08.770Z,98619.69
2022-12-12T21:46:35.677Z,98647.13
2022-12-12T21:49:21.615Z,98623.97
2022-12-12T21:51:48.548Z,98635.94
2022-12-12T21:54:15.686Z,98653.84
2022-12-12T21:56:42.806Z,98659.84
2022-12-12T21:59:10.840Z,98664.94
2022-12-12T22:01:37.804Z,98634.19
2022-12-12T22:04:04.907Z,98636.72
2022-12-12T22:06:33.478Z,98632.53
2022-12-12T22:09:01.152Z,98638.50
2022-12-12T22:11:48.233Z,98625.66
2022-12-12T22:14:17.456Z,98610.34
2022-12-12T22:16:44.919Z,98661.59
2022-12-12T22:19:12.678Z,98636.81
2022-12-12T22:21:39.604Z,98629.97
2022-12-12T22:24:07.076Z,98640.22
2022-12-12T22:26:38.637Z,98646.19
2022-12-12T22:29:07.144Z,98636.72
2022-12-12T22:31:35.311Z,98683.56
2022-12-12T22:34:04.366Z,98637.56
2022-12-12T22:36:32.860Z,98677.66
2022-12-12T22:39:00.139Z,98665.75
2022-12-12T22:41:27.697Z,98646.91
2022-12-12T22:43:55.650Z,98664.81
2022-12-12T22:46:22.986Z,98664.84
2022-12-12T22:48:50.043Z,98657.03
2022-12-12T22:51:21.814Z,98655.41
2022-12-12T22:53:48.742Z,98678.41
2022-12-12T22:56:16.019Z,98653.56
2022-12-12T22:58:43.046Z,98651.06
2022-12-12T23:01:12.453Z,98681.84
2022-12-12T23:03:39.409Z,98637.31
2022-12-12T23:06:11.612Z,98671.44
2022-12-12T23:08:38.565Z,98684.28
2022-12-12T23:11:07.311Z,98660.31
2022-12-12T23:13:34.666Z,98689.28
2022-12-12T23:16:08.432Z,98655.09
2022-12-12T23:18:37.147Z,98676.44
2022-12-12T23:21:05.087Z,98668.63
2022-12-12T23:23:32.077Z,98697.63
2022-12-12T23:26:06.172Z,98678.91
2022-12-12T23:28:34.491Z,98672.09
2022-12-12T23:31:01.734Z,98654.91
2022-12-12T23:33:28.747Z,98663.47
2022-12-12T23:35:55.640Z,98669.41
2022-12-12T23:38:22.602Z,98660.88
2022-12-12T23:40:49.686Z,98663.47
2022-12-12T23:43:16.663Z,98668.53
2022-12-12T23:45:44.069Z,98674.47
2022-12-12T23:48:11.079Z,98686.44
2022-12-12T23:50:37.943Z,98650.47
2022-12-12T23:53:10.334Z,98693.94
2022-12-12T23:55:37.679Z,98673.38
2022-12-12T23:58:04.662Z,98685.44
